Terminal Aerodrome Forecast
Issued by NWS

Home | Current Version | Previous Version | Text Only | Print | Product List | Glossary On
Versions: 1 2 3 4 5 6 7 8 9 10 11 12 13 14 15
000
FTUS43 KGRR 212300 RRA
TAFJXN
TAF
KJXN 212341Z 2200/2224 20006KT P6SM SCT040
     FM221000 20013KT 5SM FZRA BR OVC025
     FM221400 21012KT 2SM -DZ BR OVC009=

USA.gov is the U.S. government's official web portal to all federal, state and local government web resources and services.